createdAt,value
2022-11-23T00:01:48.029Z,8.49
2022-11-23T00:06:51.983Z,8.60
2022-11-23T00:11:58.133Z,8.67
2022-11-23T00:17:02.129Z,8.54
2022-11-23T00:22:06.601Z,8.58
2022-11-23T00:27:12.760Z,8.65
2022-11-23T00:32:17.102Z,8.69
2022-11-23T00:37:21.169Z,8.72
2022-11-23T00:42:26.737Z,8.78
2022-11-23T00:47:30.787Z,8.83
2022-11-23T00:52:34.756Z,8.87
2022-11-23T00:57:42.841Z,9.01
2022-11-23T01:02:47.284Z,9.00
2022-11-23T01:07:53.828Z,9.08
2022-11-23T01:12:59.704Z,9.13
2022-11-23T01:18:05.052Z,9.23
2022-11-23T01:23:09.984Z,9.16
2022-11-23T01:28:15.625Z,9.20
2022-11-23T01:33:19.628Z,9.13
2022-11-23T01:38:24.552Z,9.25
2022-11-23T01:43:30.184Z,9.25
2022-11-23T01:48:38.844Z,9.20
2022-11-23T01:53:44.162Z,9.31
2022-11-23T01:58:54.273Z,9.23
2022-11-23T02:04:02.513Z,9.26
2022-11-23T02:09:07.605Z,9.33
2022-11-23T02:14:19.093Z,9.25
2022-11-23T02:19:37.219Z,9.32
2022-11-23T02:24:47.121Z,9.24
2022-11-23T02:29:54.300Z,9.20
2022-11-23T02:34:58.536Z,9.36
2022-11-23T02:40:13.446Z,9.66
2022-11-23T02:45:28.524Z,9.90
2022-11-23T02:50:33.249Z,9.75
2022-11-23T02:55:38.131Z,9.52
2022-11-23T03:00:43.593Z,9.59
2022-11-23T03:05:48.905Z,9.31
2022-11-23T03:10:55.002Z,9.13
2022-11-23T03:16:02.468Z,9.17
2022-11-23T03:21:08.913Z,9.16
2022-11-23T03:26:14.980Z,9.16
2022-11-23T03:31:29.521Z,9.26
2022-11-23T03:36:33.747Z,9.28
2022-11-23T03:41:39.814Z,8.85
2022-11-23T03:46:45.898Z,8.39
2022-11-23T03:51:51.505Z,8.27
2022-11-23T03:56:55.627Z,8.24
2022-11-23T04:02:02.310Z,8.27
2022-11-23T04:07:12.294Z,8.10
2022-11-23T04:12:23.621Z,8.22
2022-11-23T04:17:31.203Z,8.26
2022-11-23T04:22:36.442Z,8.47
2022-11-23T04:27:40.642Z,8.46
2022-11-23T04:32:47.962Z,8.64
2022-11-23T04:37:53.046Z,8.84
2022-11-23T04:43:02.194Z,8.94
2022-11-23T04:48:12.059Z,9.20
2022-11-23T04:53:17.126Z,9.28
2022-11-23T04:58:26.812Z,8.84
2022-11-23T05:03:36.941Z,8.64
2022-11-23T05:08:44.637Z,8.58
2022-11-23T05:14:07.758Z,8.53
2022-11-23T05:19:15.679Z,8.42
2022-11-23T05:24:21.001Z,8.58
2022-11-23T05:29:38.464Z,8.52
2022-11-23T05:34:45.885Z,8.54
2022-11-23T05:39:53.077Z,8.57
2022-11-23T05:44:58.864Z,8.79
2022-11-23T05:50:13.790Z,8.99
2022-11-23T05:55:22.017Z,9.11
2022-11-23T06:00:26.933Z,8.99
2022-11-23T06:05:39.425Z,8.86
2022-11-23T06:10:44.016Z,9.26
2022-11-23T06:15:48.460Z,9.05
2022-11-23T06:21:02.272Z,9.02
2022-11-23T06:26:08.381Z,8.99
2022-11-23T06:31:13.141Z,8.94
2022-11-23T06:36:19.785Z,8.99
2022-11-23T06:41:32.176Z,9.05
2022-11-23T06:46:38.227Z,8.94
2022-11-23T06:51:44.110Z,8.85
2022-11-23T06:56:48.094Z,8.95
2022-11-23T07:01:52.952Z,8.94
2022-11-23T07:06:59.509Z,9.19
2022-11-23T07:12:13.795Z,9.18
2022-11-23T07:17:18.720Z,9.09
2022-11-23T07:22:29.028Z,9.23
2022-11-23T07:27:34.361Z,9.12
2022-11-23T07:32:42.856Z,9.37
2022-11-23T07:37:49.072Z,9.54
2022-11-23T07:42:53.851Z,9.65
2022-11-23T07:48:01.917Z,9.52
2022-11-23T07:53:12.467Z,9.65
2022-11-23T07:58:16.992Z,10.24
2022-11-23T08:03:29.600Z,10.33
2022-11-23T08:08:36.827Z,10.22
2022-11-23T08:13:40.821Z,10.46
2022-11-23T08:18:50.735Z,10.50
2022-11-23T08:23:56.089Z,10.44
2022-11-23T08:29:00.080Z,10.61
2022-11-23T08:34:04.605Z,10.65
2022-11-23T08:39:11.260Z,10.86
2022-11-23T08:44:15.587Z,11.56
2022-11-23T08:49:19.905Z,12.02
2022-11-23T08:54:25.453Z,11.97
2022-11-23T08:59:31.112Z,11.92
2022-11-23T09:04:35.527Z,12.16
2022-11-23T09:09:41.242Z,12.46
2022-11-23T09:14:45.299Z,12.78
2022-11-23T09:19:51.511Z,13.09
2022-11-23T09:24:58.811Z,13.38
2022-11-23T09:30:03.140Z,13.37
2022-11-23T09:35:08.691Z,13.32
2022-11-23T09:40:20.238Z,13.53
2022-11-23T09:45:31.466Z,14.83
2022-11-23T09:50:48.757Z,15.70
2022-11-23T09:55:57.465Z,15.89
2022-11-23T10:01:04.842Z,15.43
2022-11-23T10:06:18.773Z,15.54
2022-11-23T10:11:36.709Z,15.34
2022-11-23T10:16:49.377Z,14.76
2022-11-23T10:22:00.259Z,14.85
2022-11-23T10:27:15.237Z,14.64
2022-11-23T10:32:31.201Z,15.23
2022-11-23T10:37:35.657Z,14.88
2022-11-23T10:42:46.208Z,14.80
2022-11-23T10:47:55.008Z,14.18
2022-11-23T10:53:02.791Z,14.17
2022-11-23T10:58:28.268Z,14.12
2022-11-23T11:03:35.432Z,14.02
2022-11-23T11:08:52.476Z,13.72
2022-11-23T11:14:06.716Z,13.40
2022-11-23T11:19:27.175Z,13.59
2022-11-23T11:24:35.419Z,13.90
2022-11-23T11:29:49.671Z,14.78
2022-11-23T11:34:56.944Z,15.45
2022-11-23T11:40:09.050Z,16.18
2022-11-23T11:45:22.699Z,16.67
2022-11-23T11:50:32.187Z,16.82
2022-11-23T11:55:49.754Z,16.89
2022-11-23T12:01:06.346Z,16.91
2022-11-23T12:06:20.268Z,16.86
2022-11-23T12:11:28.789Z,17.37
2022-11-23T12:16:43.736Z,17.79
2022-11-23T12:22:30.385Z,18.49
2022-11-23T12:27:46.622Z,18.34
2022-11-23T12:33:13.812Z,18.96
2022-11-23T12:38:31.424Z,19.33
2022-11-23T12:43:53.300Z,18.93
2022-11-23T12:49:16.311Z,18.97
2022-11-23T12:54:34.859Z,19.54
2022-11-23T12:59:46.696Z,18.62
2022-11-23T13:05:21.743Z,17.57
2022-11-23T13:10:37.151Z,16.48
2022-11-23T13:16:01.664Z,15.29
2022-11-23T13:21:20.274Z,14.17
2022-11-23T13:26:25.881Z,13.80
2022-11-23T13:31:32.534Z,13.64
2022-11-23T13:42:04.223Z,13.28
2022-11-23T13:47:22.009Z,12.92
2022-11-23T13:52:33.049Z,12.74
2022-11-23T13:57:39.933Z,11.73
2022-11-23T14:02:44.789Z,11.50
2022-11-23T14:07:48.894Z,11.47
2022-11-23T14:13:01.849Z,11.18
2022-11-23T14:18:38.708Z,11.26
2022-11-23T14:24:25.679Z,12.08
2022-11-23T14:30:02.212Z,12.22
2022-11-23T14:35:24.023Z,11.97
2022-11-23T14:40:31.941Z,11.81
2022-11-23T14:45:37.876Z,11.65
2022-11-23T14:50:44.694Z,11.71
2022-11-23T14:55:51.662Z,11.45
2022-11-23T15:01:02.315Z,10.82
2022-11-23T15:06:11.547Z,10.83
2022-11-23T15:11:22.237Z,10.63
2022-11-23T15:16:31.253Z,10.12
2022-11-23T15:21:37.384Z,10.11
2022-11-23T15:26:48.891Z,9.87
2022-11-23T15:32:22.535Z,9.65
2022-11-23T15:37:20.639Z,9.32
2022-11-23T15:42:29.688Z,9.32
2022-11-23T15:47:35.193Z,9.22
2022-11-23T15:52:43.716Z,9.25
2022-11-23T15:57:48.783Z,9.26
2022-11-23T16:02:54.721Z,9.48
2022-11-23T16:08:02.857Z,9.28
2022-11-23T16:13:09.103Z,8.69
2022-11-23T16:18:24.836Z,8.83
2022-11-23T16:23:33.527Z,9.00
2022-11-23T16:28:39.792Z,9.21
2022-11-23T16:33:45.148Z,9.17
2022-11-23T16:38:49.341Z,8.86
2022-11-23T16:43:55.770Z,8.71
2022-11-23T16:49:02.447Z,8.41
2022-11-23T16:54:13.555Z,8.35
2022-11-23T16:59:20.096Z,8.33
2022-11-23T17:04:25.959Z,8.81
2022-11-23T17:09:30.320Z,8.79
2022-11-23T17:14:38.351Z,8.31
2022-11-23T17:19:48.124Z,7.97
2022-11-23T17:24:53.259Z,7.63
2022-11-23T17:30:01.544Z,7.73
2022-11-23T17:35:07.978Z,7.72
2022-11-23T17:40:16.455Z,7.63
2022-11-23T17:45:20.530Z,7.60
2022-11-23T17:50:28.767Z,7.73
2022-11-23T17:55:32.997Z,7.52
2022-11-23T18:00:39.441Z,7.42
2022-11-23T18:05:44.993Z,7.38
2022-11-23T18:10:49.199Z,7.13
2022-11-23T18:15:55.453Z,6.96
2022-11-23T18:21:03.419Z,6.88
2022-11-23T18:26:18.154Z,6.85
2022-11-23T18:31:23.764Z,6.70
2022-11-23T18:36:32.924Z,6.76
2022-11-23T18:41:36.908Z,6.62
2022-11-23T18:46:42.243Z,6.68
2022-11-23T18:51:48.153Z,6.73
2022-11-23T18:56:52.511Z,6.66
2022-11-23T19:01:58.061Z,6.71
2022-11-23T19:07:05.152Z,6.56
2022-11-23T19:12:09.898Z,6.51
2022-11-23T19:17:14.141Z,6.65
2022-11-23T19:22:19.788Z,6.48
2022-11-23T19:27:23.948Z,6.04
2022-11-23T19:32:30.234Z,6.27
2022-11-23T19:37:40.042Z,6.06
2022-11-23T19:42:46.422Z,6.03
2022-11-23T19:47:50.371Z,6.30
2022-11-23T19:53:11.819Z,6.11
2022-11-23T19:58:16.554Z,6.09
2022-11-23T20:03:20.892Z,5.78
2022-11-23T20:08:27.207Z,5.70
2022-11-23T20:13:31.227Z,5.46
2022-11-23T20:18:35.597Z,5.68
2022-11-23T20:23:41.628Z,5.86
2022-11-23T20:28:47.456Z,5.62
2022-11-23T20:33:52.103Z,5.89
2022-11-23T20:39:03.698Z,5.88
2022-11-23T20:44:11.661Z,5.64
2022-11-23T20:49:16.333Z,5.62
2022-11-23T20:54:23.078Z,5.75
2022-11-23T20:59:27.525Z,5.86
2022-11-23T21:04:34.842Z,5.66
2022-11-23T21:09:40.705Z,5.65
2022-11-23T21:14:44.620Z,5.72
2022-11-23T21:19:49.944Z,5.58
2022-11-23T21:24:55.367Z,5.66
2022-11-23T21:30:01.365Z,5.46
2022-11-23T21:35:08.273Z,5.50
2022-11-23T21:40:14.998Z,5.39
2022-11-23T21:45:19.307Z,5.05
2022-11-23T21:50:23.495Z,5.02
2022-11-23T21:55:29.109Z,5.04
2022-11-23T22:00:33.863Z,5.18
2022-11-23T22:05:38.424Z,5.08
2022-11-23T22:10:44.849Z,5.10
2022-11-23T22:15:49.955Z,5.14
2022-11-23T22:20:54.147Z,5.06
2022-11-23T22:26:02.968Z,4.84
2022-11-23T22:31:08.400Z,4.89
2022-11-23T22:36:15.186Z,4.96
2022-11-23T22:41:21.578Z,4.99
2022-11-23T22:46:26.546Z,4.97
2022-11-23T22:51:31.303Z,5.10
2022-11-23T22:56:39.111Z,4.84
2022-11-23T23:01:44.338Z,4.39
2022-11-23T23:06:49.884Z,4.59
2022-11-23T23:11:55.460Z,4.60
2022-11-23T23:17:02.156Z,4.63
2022-11-23T23:22:07.874Z,4.41
2022-11-23T23:27:13.613Z,4.43
2022-11-23T23:32:17.909Z,4.31
2022-11-23T23:37:22.313Z,3.87
2022-11-23T23:42:27.865Z,4.18
2022-11-23T23:47:32.821Z,4.34
2022-11-23T23:52:38.701Z,4.43
2022-11-23T23:57:44.487Z,4.34
